Lima Township, Michigan
Current Conditions -  °F | °C
As of 2:53 AM on Monday 26 Jan 2015 (Local Time) from KARB Reporting Station
Clear Clear  
Wind Chill:   Ceiling: Unl
Heat Index: 14°   Visibility: 10mi
Dew Point:   Wind: 8mph
Humidity: 71%   Direction: 50°NE
Pressure: 29.93"   Gusts: NA
Location:  42.3129°N, 84.0322°W
Report Text: KARB 260753Z AUTO 05007KT 10SM CLR M10/M14 A2993 RMK AO2 SLP150 T11001144
Loading
Personal Weather Stations






























Interactive Weather Map New forecast layout! Learn more

10-Day Weather Forecast

Advertisements
Track Severe Weather on mobile